createdAt,value
2023-03-19T00:00:08.911Z,3.10
2023-03-19T00:00:20.786Z,2.90
2023-03-19T00:00:32.510Z,2.90
2023-03-19T00:00:44.227Z,2.80
2023-03-19T00:00:55.243Z,2.90
2023-03-19T00:01:06.048Z,3.00
2023-03-19T00:01:17.826Z,3.30
2023-03-19T00:01:30.245Z,3.50
2023-03-19T00:01:41.046Z,3.40
2023-03-19T00:01:51.876Z,3.30
2023-03-19T00:02:16.740Z,3.50
2023-03-19T00:02:21.980Z,3.00
2023-03-19T00:02:32.786Z,2.90
2023-03-19T00:02:43.584Z,3.40
2023-03-19T00:02:54.593Z,3.40
2023-03-19T00:03:05.540Z,3.20
2023-03-19T00:03:18.044Z,3.00
2023-03-19T00:03:28.841Z,3.00
2023-03-19T00:03:39.938Z,3.00
2023-03-19T00:03:51.992Z,3.20
2023-03-19T00:04:04.235Z,3.20
2023-03-19T00:04:15.935Z,3.30
2023-03-19T00:04:29.056Z,3.50
2023-03-19T00:04:39.837Z,3.60
2023-03-19T00:04:50.599Z,3.40
2023-03-19T00:05:01.375Z,3.40
2023-03-19T00:05:12.117Z,3.30
2023-03-19T00:05:24.835Z,3.30
2023-03-19T00:05:37.090Z,3.60
2023-03-19T00:05:47.835Z,3.70
2023-03-19T00:06:01.053Z,3.70
2023-03-19T00:06:12.834Z,3.60
2023-03-19T00:06:23.577Z,3.30
2023-03-19T00:06:34.577Z,3.10
2023-03-19T00:06:45.337Z,3.40
2023-03-19T00:06:57.317Z,3.20
2023-03-19T00:07:10.316Z,3.20
2023-03-19T00:07:22.761Z,3.00
2023-03-19T00:07:34.638Z,3.20
2023-03-19T00:07:45.407Z,3.50
2023-03-19T00:07:56.196Z,3.60
2023-03-19T00:08:06.972Z,3.40
2023-03-19T00:08:17.717Z,3.20
2023-03-19T00:08:28.482Z,2.90
2023-03-19T00:08:40.222Z,3.00
2023-03-19T00:08:51.962Z,3.30
2023-03-19T00:09:02.736Z,3.30
2023-03-19T00:09:14.479Z,3.80
2023-03-19T00:09:26.700Z,3.50
2023-03-19T00:09:39.247Z,3.40
2023-03-19T00:09:50.020Z,3.50
2023-03-19T00:10:01.716Z,3.50
2023-03-19T00:10:14.435Z,3.70
2023-03-19T00:10:26.239Z,3.70
2023-03-19T00:10:37.968Z,3.90
2023-03-19T00:10:50.468Z,4.40
2023-03-19T00:11:01.279Z,4.00
2023-03-19T00:11:13.002Z,3.30
2023-03-19T00:11:25.459Z,3.30
2023-03-19T00:11:37.725Z,3.40
2023-03-19T00:11:50.178Z,3.30
2023-03-19T00:12:02.421Z,3.30
2023-03-19T00:12:14.670Z,3.30
2023-03-19T00:12:25.457Z,3.00
2023-03-19T00:12:37.933Z,3.50
2023-03-19T00:12:48.715Z,3.60
2023-03-19T00:13:01.157Z,3.60
2023-03-19T00:13:12.908Z,3.20
2023-03-19T00:13:23.660Z,3.20
2023-03-19T00:13:34.430Z,3.30
2023-03-19T00:13:45.180Z,3.30
2023-03-19T00:13:56.936Z,3.40
2023-03-19T00:14:09.383Z,3.50
2023-03-19T00:14:20.141Z,3.30
2023-03-19T00:14:32.628Z,3.30
2023-03-19T00:14:45.110Z,3.40
2023-03-19T00:14:56.854Z,3.60
2023-03-19T00:15:08.604Z,3.60
2023-03-19T00:15:20.325Z,3.80
2023-03-19T00:15:33.287Z,3.80
2023-03-19T00:15:44.217Z,3.50
2023-03-19T00:15:55.083Z,3.60
2023-03-19T00:16:07.600Z,3.40
2023-03-19T00:16:20.582Z,3.60
2023-03-19T00:16:33.087Z,3.50
2023-03-19T00:16:43.876Z,3.40
2023-03-19T00:16:54.877Z,3.50
2023-03-19T00:17:05.657Z,3.50
2023-03-19T00:17:16.423Z,3.50
2023-03-19T00:17:28.873Z,3.60
2023-03-19T00:17:39.673Z,3.70
2023-03-19T00:17:50.479Z,3.60
2023-03-19T00:18:03.053Z,3.40
2023-03-19T00:18:15.021Z,3.80
2023-03-19T00:18:27.460Z,3.90
2023-03-19T00:18:39.209Z,3.90
2023-03-19T00:18:49.932Z,3.90
2023-03-19T00:19:00.677Z,3.90
2023-03-19T00:19:12.381Z,3.80
2023-03-19T00:19:23.132Z,3.70
2023-03-19T00:19:33.882Z,4.00
2023-03-19T00:19:47.612Z,4.20
2023-03-19T00:19:58.364Z,4.40
2023-03-19T00:20:10.170Z,3.70
2023-03-19T00:20:20.922Z,4.10
2023-03-19T00:20:32.652Z,4.30
2023-03-19T00:20:45.848Z,4.10
2023-03-19T00:20:57.576Z,4.10
2023-03-19T00:21:09.294Z,4.00
2023-03-19T00:21:20.064Z,3.80
2023-03-19T00:21:30.823Z,3.90
2023-03-19T00:21:42.604Z,4.10
2023-03-19T00:21:54.352Z,4.30
2023-03-19T00:22:05.080Z,3.90
2023-03-19T00:22:15.843Z,4.20
2023-03-19T00:22:26.614Z,4.10
2023-03-19T00:22:38.348Z,4.40
2023-03-19T00:22:50.097Z,4.00
2023-03-19T00:23:00.843Z,3.70
2023-03-19T00:23:11.594Z,3.80
2023-03-19T00:23:22.343Z,4.00
2023-03-19T00:23:33.098Z,4.30
2023-03-19T00:23:44.826Z,4.10
2023-03-19T00:23:57.255Z,4.10
2023-03-19T00:24:09.202Z,3.80
2023-03-19T00:24:21.676Z,3.70
2023-03-19T00:24:32.468Z,3.70
2023-03-19T00:24:44.936Z,3.60
2023-03-19T00:24:57.167Z,3.90
2023-03-19T00:25:09.110Z,4.00
2023-03-19T00:25:21.555Z,4.10
2023-03-19T00:25:32.614Z,4.30
2023-03-19T00:25:43.435Z,4.30
2023-03-19T00:25:54.175Z,4.40
2023-03-19T00:26:04.979Z,4.20
2023-03-19T00:26:17.936Z,4.00
2023-03-19T00:26:28.698Z,4.00
2023-03-19T00:26:41.244Z,3.80
2023-03-19T00:26:53.522Z,4.00
2023-03-19T00:27:05.229Z,4.00
2023-03-19T00:27:15.968Z,3.90
2023-03-19T00:27:27.660Z,3.90
2023-03-19T00:27:38.423Z,4.10
2023-03-19T00:27:50.927Z,3.90
2023-03-19T00:28:01.679Z,3.90
2023-03-19T00:28:13.435Z,3.90
2023-03-19T00:28:26.147Z,4.20
2023-03-19T00:28:37.029Z,4.40
2023-03-19T00:28:49.619Z,4.00
2023-03-19T00:29:01.856Z,3.90
2023-03-19T00:29:13.636Z,4.30
2023-03-19T00:29:25.357Z,4.20
2023-03-19T00:29:36.118Z,3.70
2023-03-19T00:29:48.352Z,3.60
2023-03-19T00:30:00.093Z,3.70
2023-03-19T00:30:10.880Z,3.80
2023-03-19T00:30:21.624Z,3.80
2023-03-19T00:30:32.486Z,3.60
2023-03-19T00:30:47.151Z,3.90
2023-03-19T00:30:59.499Z,4.00
2023-03-19T00:31:11.268Z,4.00
2023-03-19T00:31:22.045Z,3.60
2023-03-19T00:31:33.769Z,4.00
2023-03-19T00:31:44.514Z,4.00
2023-03-19T00:31:56.242Z,4.20
2023-03-19T00:32:08.687Z,3.50
2023-03-19T00:32:20.896Z,3.20
2023-03-19T00:32:32.628Z,3.30
2023-03-19T00:32:45.143Z,3.20
2023-03-19T00:32:56.886Z,3.40
2023-03-19T00:33:09.630Z,3.40
2023-03-19T00:33:22.388Z,3.20
2023-03-19T00:33:33.150Z,3.30
2023-03-19T00:33:43.918Z,3.20
2023-03-19T00:33:54.737Z,3.10
2023-03-19T00:34:06.456Z,3.40
2023-03-19T00:34:18.235Z,3.30
2023-03-19T00:34:28.976Z,3.50
2023-03-19T00:34:39.722Z,3.40
2023-03-19T00:34:50.468Z,3.40
2023-03-19T00:35:02.956Z,3.20
2023-03-19T00:35:15.156Z,3.60
2023-03-19T00:35:27.387Z,3.60
2023-03-19T00:35:39.166Z,3.20
2023-03-19T00:35:49.998Z,3.20
2023-03-19T00:36:01.744Z,3.30
2023-03-19T00:36:12.570Z,3.60
2023-03-19T00:36:23.309Z,3.60
2023-03-19T00:36:34.037Z,3.30
2023-03-19T00:36:45.787Z,3.30
2023-03-19T00:36:58.223Z,3.30
2023-03-19T00:37:10.949Z,3.10
2023-03-19T00:37:23.476Z,3.00
2023-03-19T00:37:35.169Z,3.20
2023-03-19T00:37:47.375Z,3.10
2023-03-19T00:37:59.132Z,3.50
2023-03-19T00:38:09.969Z,3.40
2023-03-19T00:38:22.193Z,3.60
2023-03-19T00:38:32.973Z,3.40
2023-03-19T00:38:43.767Z,3.30
2023-03-19T00:38:56.987Z,2.90
2023-03-19T00:39:08.770Z,3.20
2023-03-19T00:39:19.635Z,3.40
2023-03-19T00:39:31.381Z,3.50
2023-03-19T00:39:42.152Z,4.00
2023-03-19T00:39:52.902Z,3.90
2023-03-19T00:40:03.630Z,3.80
2023-03-19T00:40:16.081Z,3.20
2023-03-19T00:40:29.038Z,2.90
2023-03-19T00:40:39.788Z,3.10
2023-03-19T00:40:50.528Z,3.30
2023-03-19T00:41:02.981Z,3.10
2023-03-19T00:41:15.712Z,2.90
2023-03-19T00:41:28.205Z,2.70
2023-03-19T00:41:39.959Z,2.90
2023-03-19T00:41:52.241Z,3.20
2023-03-19T00:42:03.001Z,3.50
2023-03-19T00:42:14.751Z,3.30
2023-03-19T00:42:26.446Z,3.20
2023-03-19T00:42:38.242Z,3.20
2023-03-19T00:42:48.972Z,3.50
2023-03-19T00:42:59.743Z,3.40
2023-03-19T00:43:10.481Z,3.50
2023-03-19T00:43:21.516Z,3.20
2023-03-19T00:43:33.964Z,3.20
2023-03-19T00:43:44.761Z,3.20
2023-03-19T00:43:56.496Z,3.50
2023-03-19T00:44:07.225Z,3.30
2023-03-19T00:44:18.975Z,3.30
2023-03-19T00:44:29.733Z,3.00
2023-03-19T00:44:41.485Z,3.10
2023-03-19T00:44:53.207Z,3.20
2023-03-19T00:45:06.326Z,3.20
2023-03-19T00:45:19.485Z,3.40
2023-03-19T00:45:32.253Z,3.30
2023-03-19T00:45:43.260Z,3.20
2023-03-19T00:45:55.792Z,3.20
2023-03-19T00:46:06.620Z,3.70
2023-03-19T00:46:17.427Z,3.90
2023-03-19T00:46:29.185Z,3.80
2023-03-19T00:46:40.905Z,3.40
2023-03-19T00:46:52.662Z,3.20
2023-03-19T00:47:04.915Z,3.10
2023-03-19T00:47:15.657Z,2.90
2023-03-19T00:47:29.934Z,3.00
2023-03-19T00:47:42.419Z,3.20
2023-03-19T00:47:53.179Z,3.20
2023-03-19T00:48:03.927Z,3.20
2023-03-19T00:48:15.631Z,3.10
2023-03-19T00:48:27.576Z,3.50
2023-03-19T00:48:38.373Z,3.40
2023-03-19T00:48:50.125Z,3.60
2023-03-19T00:49:00.858Z,3.40
2023-03-19T00:49:13.289Z,3.20
2023-03-19T00:49:24.123Z,3.30
2023-03-19T00:49:37.863Z,3.20
2023-03-19T00:49:51.649Z,3.60
2023-03-19T00:50:04.076Z,3.60
2023-03-19T00:50:14.853Z,3.30
2023-03-19T00:50:26.585Z,3.50
2023-03-19T00:50:38.809Z,3.40
2023-03-19T00:50:50.415Z,3.00
2023-03-19T00:51:02.137Z,3.10
2023-03-19T00:51:12.936Z,3.30
2023-03-19T00:51:25.559Z,3.40
2023-03-19T00:51:37.815Z,3.60
2023-03-19T00:51:50.126Z,3.40
2023-03-19T00:52:02.608Z,3.20
2023-03-19T00:52:14.350Z,3.20
2023-03-19T00:52:25.115Z,3.10
2023-03-19T00:52:35.887Z,3.40
2023-03-19T00:52:47.625Z,3.40
2023-03-19T00:53:00.106Z,3.40
2023-03-19T00:53:10.854Z,3.20
2023-03-19T00:53:21.637Z,3.10
2023-03-19T00:53:34.386Z,3.10
2023-03-19T00:53:45.155Z,3.00
2023-03-19T00:53:56.888Z,2.80
2023-03-19T00:54:07.655Z,2.70
2023-03-19T00:54:18.428Z,3.20
2023-03-19T00:54:29.188Z,3.40
2023-03-19T00:54:39.912Z,3.40
2023-03-19T00:54:50.697Z,2.80
2023-03-19T00:55:01.461Z,2.70
2023-03-19T00:55:13.154Z,2.80
2023-03-19T00:55:23.895Z,3.30
2023-03-19T00:55:36.172Z,3.40
2023-03-19T00:55:46.936Z,3.00
2023-03-19T00:55:58.664Z,2.60
2023-03-19T00:56:11.145Z,2.60
2023-03-19T00:56:22.905Z,2.80
2023-03-19T00:56:36.135Z,2.90
2023-03-19T00:56:48.117Z,3.00
2023-03-19T00:57:01.126Z,3.00
2023-03-19T00:57:11.875Z,3.00
2023-03-19T00:57:24.327Z,3.00
2023-03-19T00:57:37.546Z,2.80
2023-03-19T00:57:49.784Z,3.00
2023-03-19T00:58:02.021Z,3.00
2023-03-19T00:58:12.771Z,3.00
2023-03-19T00:58:23.540Z,2.80
2023-03-19T00:58:36.026Z,2.90
2023-03-19T00:58:46.786Z,3.10
2023-03-19T00:58:57.641Z,3.20
2023-03-19T00:59:08.386Z,3.10
2023-03-19T00:59:20.073Z,3.10
2023-03-19T00:59:32.595Z,3.10
2023-03-19T00:59:43.341Z,3.00
2023-03-19T00:59:54.110Z,3.00
2023-03-19T01:00:04.924Z,2.90
2023-03-19T01:00:59.881Z,0.00
2023-03-19T01:01:12.365Z,3.10
2023-03-19T01:01:24.114Z,3.00
2023-03-19T01:01:36.655Z,2.90
2023-03-19T01:01:47.501Z,3.10
2023-03-19T01:01:58.370Z,3.40
2023-03-19T01:02:09.211Z,3.40
2023-03-19T01:02:21.004Z,3.30
2023-03-19T01:02:32.756Z,3.10
2023-03-19T01:02:44.535Z,3.10
2023-03-19T01:02:56.997Z,2.90
2023-03-19T01:03:08.771Z,3.10
2023-03-19T01:03:20.978Z,3.40
2023-03-19T01:03:31.736Z,3.20
2023-03-19T01:03:42.551Z,3.10
2023-03-19T01:03:53.402Z,2.90
2023-03-19T01:04:05.908Z,3.10
2023-03-19T01:04:16.662Z,3.40
2023-03-19T01:04:29.153Z,3.40
2023-03-19T01:04:39.968Z,3.20
2023-03-19T01:04:50.843Z,3.00
2023-03-19T01:05:03.354Z,3.00
2023-03-19T01:05:15.143Z,2.90
2023-03-19T01:05:27.647Z,3.10
2023-03-19T01:06:04.409Z,0.00
2023-03-19T01:06:17.448Z,2.40
2023-03-19T01:06:29.757Z,2.50
2023-03-19T01:06:40.517Z,2.80
2023-03-19T01:06:51.364Z,3.20
2023-03-19T01:07:24.919Z,0.00
2023-03-19T01:07:35.688Z,3.00
2023-03-19T01:07:48.139Z,2.90
2023-03-19T01:08:01.383Z,3.10
2023-03-19T01:08:12.171Z,3.20
2023-03-19T01:08:23.006Z,3.00
2023-03-19T01:08:35.686Z,2.80
2023-03-19T01:08:46.494Z,2.60
2023-03-19T01:08:57.300Z,2.70
2023-03-19T01:09:09.065Z,2.80
2023-03-19T01:09:20.839Z,3.10
2023-03-19T01:09:31.661Z,3.20
2023-03-19T01:09:42.399Z,3.30
2023-03-19T01:09:53.200Z,3.30
2023-03-19T01:10:04.978Z,3.00
2023-03-19T01:10:17.206Z,3.10
2023-03-19T01:10:27.999Z,3.30
2023-03-19T01:10:38.762Z,3.10
2023-03-19T01:10:49.519Z,2.70
2023-03-19T01:11:00.370Z,2.60
2023-03-19T01:11:13.034Z,2.90
2023-03-19T01:11:23.882Z,3.00
2023-03-19T01:11:35.599Z,3.10
2023-03-19T01:11:46.402Z,3.00
2023-03-19T01:11:58.127Z,2.90
2023-03-19T01:12:09.949Z,3.30
2023-03-19T01:12:22.169Z,3.20
2023-03-19T01:12:33.984Z,3.60
2023-03-19T01:12:45.951Z,3.30
2023-03-19T01:12:58.448Z,3.20
2023-03-19T01:13:09.266Z,2.90
2023-03-19T01:13:20.096Z,2.90
2023-03-19T01:13:31.073Z,3.30
2023-03-19T01:13:41.855Z,3.20
2023-03-19T01:13:52.634Z,3.20
2023-03-19T01:14:05.880Z,3.00
2023-03-19T01:14:19.637Z,2.90
2023-03-19T01:14:31.991Z,2.90
2023-03-19T01:14:43.762Z,3.00
2023-03-19T01:14:54.529Z,3.10
2023-03-19T01:15:05.266Z,3.00
2023-03-19T01:15:15.990Z,2.80
2023-03-19T01:15:27.767Z,3.30
2023-03-19T01:15:38.620Z,3.40
2023-03-19T01:15:49.403Z,3.60
2023-03-19T01:16:02.135Z,2.90
2023-03-19T01:16:13.842Z,2.80
2023-03-19T01:16:27.088Z,3.00
2023-03-19T01:16:37.940Z,3.00
2023-03-19T01:16:49.672Z,2.80
2023-03-19T01:17:00.447Z,2.90
2023-03-19T01:17:12.185Z,2.50
2023-03-19T01:17:24.653Z,2.80
2023-03-19T01:17:36.367Z,3.10
2023-03-19T01:17:47.153Z,3.20
2023-03-19T01:17:58.912Z,3.00
2023-03-19T01:18:11.403Z,3.30
2023-03-19T01:18:23.137Z,3.30
2023-03-19T01:18:33.942Z,3.30
2023-03-19T01:18:45.725Z,3.20
2023-03-19T01:18:59.433Z,3.20
2023-03-19T01:19:10.172Z,3.10
2023-03-19T01:19:20.964Z,3.10
2023-03-19T01:19:31.708Z,3.20
2023-03-19T01:19:43.432Z,3.30
2023-03-19T01:19:54.198Z,3.20
2023-03-19T01:20:04.981Z,3.60
2023-03-19T01:20:17.225Z,3.40
2023-03-19T01:20:27.973Z,3.40
2023-03-19T01:20:38.713Z,3.40
2023-03-19T01:20:51.057Z,3.50
2023-03-19T01:21:01.838Z,3.10
2023-03-19T01:21:14.283Z,2.80
2023-03-19T01:21:27.502Z,2.60
2023-03-19T01:21:39.441Z,2.90
2023-03-19T01:21:51.165Z,3.40
2023-03-19T01:22:03.598Z,3.70
2023-03-19T01:22:14.371Z,3.50
2023-03-19T01:22:26.125Z,3.30
2023-03-19T01:22:36.893Z,3.10
2023-03-19T01:22:47.707Z,3.30
2023-03-19T01:22:59.993Z,3.10
2023-03-19T01:23:10.765Z,3.00
2023-03-19T01:23:23.241Z,3.10
2023-03-19T01:23:36.889Z,3.30
2023-03-19T01:23:49.356Z,3.10
2023-03-19T01:24:00.120Z,3.00
2023-03-19T01:24:10.842Z,3.10
2023-03-19T01:24:24.065Z,3.30
2023-03-19T01:24:35.804Z,3.30
2023-03-19T01:24:48.025Z,2.70
2023-03-19T01:24:58.850Z,3.40
2023-03-19T01:25:11.389Z,3.30
2023-03-19T01:25:22.230Z,3.40
2023-03-19T01:25:32.972Z,3.10
2023-03-19T01:25:45.196Z,2.90
2023-03-19T01:25:57.919Z,2.90
2023-03-19T01:26:09.642Z,2.80
2023-03-19T01:26:20.425Z,3.20
2023-03-19T01:26:32.136Z,3.40
2023-03-19T01:26:45.575Z,3.10
2023-03-19T01:26:58.820Z,3.00
2023-03-19T01:27:09.750Z,3.20
2023-03-19T01:27:22.192Z,3.20
2023-03-19T01:27:35.169Z,3.30
2023-03-19T01:27:46.896Z,3.20
2023-03-19T01:27:59.365Z,3.10
2023-03-19T01:28:10.141Z,3.00
2023-03-19T01:28:20.949Z,2.90
2023-03-19T01:28:32.626Z,3.50
2023-03-19T01:28:45.137Z,3.40
2023-03-19T01:28:56.852Z,2.70
2023-03-19T01:29:09.319Z,2.60
2023-03-19T01:29:21.038Z,2.60
2023-03-19T01:29:31.799Z,2.70
2023-03-19T01:29:42.537Z,2.80
2023-03-19T01:29:53.327Z,2.80
2023-03-19T01:30:05.051Z,3.20
2023-03-19T01:30:17.584Z,3.20
2023-03-19T01:30:30.054Z,3.00
2023-03-19T01:30:41.770Z,2.80
2023-03-19T01:30:52.566Z,2.80
2023-03-19T01:31:03.363Z,2.90
2023-03-19T01:31:14.156Z,2.90
2023-03-19T01:31:26.414Z,2.90
2023-03-19T01:31:37.428Z,3.30
2023-03-19T01:31:51.225Z,3.50
2023-03-19T01:32:03.754Z,3.50
2023-03-19T01:32:16.203Z,3.20
2023-03-19T01:32:26.959Z,3.00
2023-03-19T01:32:37.739Z,3.00
2023-03-19T01:32:50.971Z,3.10
2023-03-19T01:33:03.008Z,3.70
2023-03-19T01:33:14.754Z,3.70
2023-03-19T01:33:27.228Z,3.80
2023-03-19T01:33:38.976Z,3.70
2023-03-19T01:33:50.730Z,3.70
2023-03-19T01:34:02.386Z,3.40
2023-03-19T01:34:14.307Z,3.10
2023-03-19T01:34:27.525Z,3.20
2023-03-19T01:34:38.285Z,3.00
2023-03-19T01:34:50.498Z,2.80
2023-03-19T01:35:02.961Z,3.20
2023-03-19T01:35:16.716Z,3.40
2023-03-19T01:35:28.467Z,3.50
2023-03-19T01:35:41.013Z,3.20
2023-03-19T01:35:53.537Z,3.40
2023-03-19T01:36:05.228Z,3.20
2023-03-19T01:36:15.958Z,3.60
2023-03-19T01:36:29.230Z,3.60
2023-03-19T01:36:39.977Z,3.70
2023-03-19T01:36:51.708Z,3.70
2023-03-19T01:37:03.492Z,3.40
2023-03-19T01:37:15.218Z,3.20
2023-03-19T01:37:25.975Z,3.30
2023-03-19T01:37:38.160Z,3.60
2023-03-19T01:37:51.399Z,3.70
2023-03-19T01:38:05.152Z,3.60
2023-03-19T01:38:17.612Z,3.60
2023-03-19T01:38:29.385Z,3.90
2023-03-19T01:38:40.189Z,3.60
2023-03-19T01:38:51.934Z,3.30
2023-03-19T01:39:03.738Z,3.40
2023-03-19T01:39:14.482Z,3.40
2023-03-19T01:39:25.241Z,3.40
2023-03-19T01:39:37.221Z,3.40
2023-03-19T01:39:48.957Z,3.50
2023-03-19T01:39:59.702Z,3.70
2023-03-19T01:40:10.472Z,3.60
2023-03-19T01:40:22.176Z,3.70
2023-03-19T01:40:33.219Z,3.30
2023-03-19T01:40:44.108Z,3.70
2023-03-19T01:40:55.854Z,3.90
2023-03-19T01:41:08.131Z,4.30
2023-03-19T01:41:18.929Z,4.10
2023-03-19T01:41:31.440Z,3.70
2023-03-19T01:41:42.179Z,3.80
2023-03-19T01:41:52.981Z,3.70
2023-03-19T01:42:03.758Z,3.70
2023-03-19T01:42:16.230Z,3.60
2023-03-19T01:42:29.365Z,3.40
2023-03-19T01:42:40.112Z,3.30
2023-03-19T01:42:52.350Z,3.60
2023-03-19T01:43:03.080Z,3.80
2023-03-19T01:43:13.899Z,3.50
2023-03-19T01:43:24.649Z,3.60
2023-03-19T01:43:36.401Z,3.60
2023-03-19T01:43:48.160Z,4.00
2023-03-19T01:43:59.926Z,3.80
2023-03-19T01:44:12.381Z,3.70
2023-03-19T01:44:23.188Z,4.00
2023-03-19T01:44:33.973Z,4.00
2023-03-19T01:44:44.718Z,3.70
2023-03-19T01:44:57.191Z,3.40
2023-03-19T01:45:08.947Z,3.30
2023-03-19T01:45:21.454Z,3.40
2023-03-19T01:45:32.237Z,3.70
2023-03-19T01:45:43.011Z,3.50
2023-03-19T01:45:53.800Z,3.30
2023-03-19T01:46:06.302Z,3.20
2023-03-19T01:46:18.590Z,3.10
2023-03-19T01:46:30.369Z,3.10
2023-03-19T01:46:43.625Z,3.30
2023-03-19T01:46:56.073Z,3.00
2023-03-19T01:47:06.862Z,3.10
2023-03-19T01:47:19.048Z,3.20
2023-03-19T01:47:32.291Z,3.00
2023-03-19T01:47:44.514Z,3.10
2023-03-19T01:47:55.295Z,3.20
2023-03-19T01:48:06.068Z,3.40
2023-03-19T01:48:18.385Z,3.60
2023-03-19T01:48:29.173Z,3.50
2023-03-19T01:48:41.050Z,3.10
2023-03-19T01:48:52.776Z,3.00
2023-03-19T01:49:03.589Z,3.00
2023-03-19T01:49:14.325Z,3.20
2023-03-19T01:49:26.069Z,3.30
2023-03-19T01:49:40.296Z,3.50
2023-03-19T01:49:51.053Z,3.50
2023-03-19T01:50:02.835Z,3.50
2023-03-19T01:50:14.547Z,3.50
2023-03-19T01:50:26.287Z,3.40
2023-03-19T01:50:37.052Z,3.10
2023-03-19T01:50:48.786Z,3.10
2023-03-19T01:51:00.509Z,3.20
2023-03-19T01:51:12.980Z,3.00
2023-03-19T01:51:24.672Z,3.00
2023-03-19T01:51:35.447Z,2.80
2023-03-19T01:51:47.952Z,3.20
2023-03-19T01:51:58.683Z,3.20
2023-03-19T01:52:09.451Z,3.50
2023-03-19T01:52:20.184Z,3.50
2023-03-19T01:52:32.411Z,3.60
2023-03-19T01:52:44.968Z,3.70
2023-03-19T01:52:57.422Z,3.40
2023-03-19T01:53:11.352Z,3.00
2023-03-19T01:53:23.214Z,3.10
2023-03-19T01:53:36.477Z,3.20
2023-03-19T01:53:48.935Z,3.30
2023-03-19T01:54:02.671Z,3.00
2023-03-19T01:54:13.478Z,3.10
2023-03-19T01:54:24.504Z,3.30
2023-03-19T01:54:36.837Z,3.20
2023-03-19T01:54:47.630Z,3.20
2023-03-19T01:55:00.653Z,3.00
2023-03-19T01:55:11.382Z,3.00
2023-03-19T01:55:22.213Z,3.10
2023-03-19T01:55:34.458Z,3.20
2023-03-19T01:55:46.431Z,3.30
2023-03-19T01:55:57.201Z,3.30
2023-03-19T01:56:09.719Z,3.70
2023-03-19T01:56:21.413Z,3.50
2023-03-19T01:56:33.121Z,3.50
2023-03-19T01:56:43.892Z,3.50
2023-03-19T01:56:56.448Z,4.10
2023-03-19T01:57:08.209Z,3.70
2023-03-19T01:57:18.966Z,3.60
2023-03-19T01:57:29.698Z,3.40
2023-03-19T01:57:42.662Z,3.80
2023-03-19T01:57:54.944Z,3.90
2023-03-19T01:58:05.711Z,3.50
2023-03-19T01:58:18.172Z,3.50
2023-03-19T01:58:29.899Z,3.20
2023-03-19T01:58:40.680Z,3.20
2023-03-19T01:58:52.505Z,3.10
2023-03-19T01:59:03.266Z,2.80
2023-03-19T01:59:15.752Z,2.90
2023-03-19T01:59:26.514Z,3.10
2023-03-19T01:59:38.254Z,3.00
2023-03-19T01:59:49.954Z,3.20
2023-03-19T02:00:00.734Z,2.90
2023-03-19T02:00:11.525Z,3.00
2023-03-19T02:00:23.234Z,3.30
2023-03-19T02:00:34.413Z,3.60
2023-03-19T02:00:48.293Z,3.30
2023-03-19T02:01:00.786Z,3.00
2023-03-19T02:01:11.633Z,3.10
2023-03-19T02:01:22.474Z,3.30
2023-03-19T02:01:34.223Z,3.40
2023-03-19T02:01:45.074Z,3.50
2023-03-19T02:01:55.912Z,4.10
2023-03-19T02:02:07.644Z,4.30
2023-03-19T02:02:20.109Z,3.80
2023-03-19T02:02:32.332Z,3.60
2023-03-19T02:02:44.111Z,3.40
2023-03-19T02:02:58.254Z,3.30
2023-03-19T02:03:09.023Z,2.90
2023-03-19T02:03:19.786Z,3.10
2023-03-19T02:03:30.514Z,3.00
2023-03-19T02:03:41.263Z,3.10
2023-03-19T02:03:52.044Z,3.60
2023-03-19T02:04:02.938Z,3.50
2023-03-19T02:04:13.753Z,3.40
2023-03-19T02:04:24.606Z,3.10
2023-03-19T02:04:35.435Z,3.10
2023-03-19T02:04:47.244Z,3.30
2023-03-19T02:04:58.018Z,3.70
2023-03-19T02:05:08.753Z,3.50
2023-03-19T02:05:21.976Z,3.40
2023-03-19T02:05:34.443Z,3.20
2023-03-19T02:05:45.195Z,3.10
2023-03-19T02:05:57.681Z,3.10
2023-03-19T02:06:08.463Z,3.00
2023-03-19T02:06:19.236Z,3.20
2023-03-19T02:06:29.997Z,3.10
2023-03-19T02:06:40.775Z,3.60
2023-03-19T02:06:51.574Z,3.80
2023-03-19T02:07:03.288Z,3.60
2023-03-19T02:07:15.888Z,3.30
2023-03-19T02:07:29.194Z,3.30
2023-03-19T02:07:40.954Z,3.50
2023-03-19T02:07:53.459Z,3.50
2023-03-19T02:08:04.193Z,3.00
2023-03-19T02:08:15.967Z,2.80
2023-03-19T02:08:26.731Z,2.90
2023-03-19T02:08:37.535Z,2.90
2023-03-19T02:08:48.312Z,2.90
2023-03-19T02:08:59.126Z,3.10
2023-03-19T02:09:10.149Z,3.20
2023-03-19T02:09:21.922Z,3.60
2023-03-19T02:09:32.740Z,3.40
2023-03-19T02:09:43.495Z,3.30
2023-03-19T02:09:55.948Z,3.20
2023-03-19T02:10:06.746Z,3.10
2023-03-19T02:10:18.756Z,3.40
2023-03-19T02:10:29.528Z,3.50
2023-03-19T02:10:40.286Z,3.30
2023-03-19T02:10:52.817Z,3.20
2023-03-19T02:11:05.057Z,3.20
2023-03-19T02:11:15.830Z,3.50
2023-03-19T02:11:26.569Z,3.50
2023-03-19T02:11:37.429Z,3.90
2023-03-19T02:11:48.186Z,3.70
2023-03-19T02:11:59.884Z,3.60
2023-03-19T02:12:12.125Z,3.30
2023-03-19T02:12:22.939Z,3.50
2023-03-19T02:12:35.435Z,3.50
2023-03-19T02:12:47.220Z,3.40
2023-03-19T02:12:59.680Z,3.90
2023-03-19T02:13:11.485Z,4.00
2023-03-19T02:13:23.585Z,3.70
2023-03-19T02:13:35.437Z,3.60
2023-03-19T02:13:47.199Z,3.60
2023-03-19T02:13:57.984Z,3.80
2023-03-19T02:14:09.768Z,3.80
2023-03-19T02:14:22.220Z,3.50
2023-03-19T02:14:32.955Z,3.20
2023-03-19T02:14:45.577Z,3.10
2023-03-19T02:14:56.367Z,3.50
2023-03-19T02:15:07.157Z,3.60
2023-03-19T02:15:18.047Z,3.60
2023-03-19T02:15:28.840Z,3.30
2023-03-19T02:15:40.830Z,2.90
2023-03-19T02:15:51.693Z,2.90
2023-03-19T02:16:03.469Z,3.10
2023-03-19T02:16:14.337Z,3.10
2023-03-19T02:16:26.244Z,3.10
2023-03-19T02:16:38.269Z,3.30
2023-03-19T02:16:50.063Z,3.40
2023-03-19T02:17:01.869Z,3.40
2023-03-19T02:17:12.615Z,3.50
2023-03-19T02:17:23.400Z,3.50
2023-03-19T02:17:36.185Z,3.80
2023-03-19T02:17:48.689Z,3.80
2023-03-19T02:18:00.501Z,3.70
2023-03-19T02:18:12.297Z,3.70
2023-03-19T02:18:23.116Z,3.60
2023-03-19T02:18:35.468Z,3.50
2023-03-19T02:18:47.696Z,3.20
2023-03-19T02:18:58.526Z,3.50
2023-03-19T02:19:09.340Z,3.60
2023-03-19T02:19:20.129Z,3.60
2023-03-19T02:19:30.849Z,3.60
2023-03-19T02:19:41.633Z,3.60
2023-03-19T02:19:53.376Z,3.60
2023-03-19T02:20:05.180Z,3.50
2023-03-19T02:20:16.917Z,3.50
2023-03-19T02:20:27.769Z,3.70
2023-03-19T02:20:40.511Z,3.60
2023-03-19T02:20:51.389Z,3.50
2023-03-19T02:21:03.136Z,3.60
2023-03-19T02:21:15.360Z,3.50
2023-03-19T02:21:26.172Z,3.40
2023-03-19T02:21:37.942Z,3.50
2023-03-19T02:21:48.689Z,3.50
2023-03-19T02:22:00.458Z,3.70
2023-03-19T02:22:12.950Z,3.60
2023-03-19T02:22:25.493Z,3.10
2023-03-19T02:22:38.089Z,3.30
2023-03-19T02:22:49.796Z,3.60
2023-03-19T02:23:02.541Z,3.30
2023-03-19T02:23:14.315Z,3.50
2023-03-19T02:23:25.117Z,3.40
2023-03-19T02:23:37.891Z,3.10
2023-03-19T02:23:49.843Z,3.40
2023-03-19T02:24:01.641Z,3.50
2023-03-19T02:24:13.436Z,3.50
2023-03-19T02:24:25.134Z,3.80
2023-03-19T02:24:36.893Z,3.70
2023-03-19T02:24:49.630Z,3.30
2023-03-19T02:25:01.426Z,3.10
2023-03-19T02:25:13.169Z,3.00
2023-03-19T02:25:25.949Z,3.20
2023-03-19T02:25:38.203Z,3.20
2023-03-19T02:25:49.106Z,3.80
2023-03-19T02:26:00.854Z,4.00
2023-03-19T02:26:13.290Z,3.90
2023-03-19T02:26:24.050Z,3.40
2023-03-19T02:26:36.462Z,3.30
2023-03-19T02:26:48.947Z,3.20
2023-03-19T02:26:59.786Z,3.20
2023-03-19T02:27:12.234Z,3.40
2023-03-19T02:27:23.021Z,3.50
2023-03-19T02:27:33.841Z,3.30
2023-03-19T02:27:44.600Z,3.20
2023-03-19T02:27:56.593Z,3.30
2023-03-19T02:28:08.360Z,3.40
2023-03-19T02:28:19.223Z,3.40
2023-03-19T02:28:31.064Z,3.50
2023-03-19T02:28:42.893Z,3.30
2023-03-19T02:28:55.420Z,3.20
2023-03-19T02:29:07.710Z,3.20
2023-03-19T02:29:20.360Z,3.40
2023-03-19T02:29:31.142Z,3.60
2023-03-19T02:29:43.050Z,3.50
2023-03-19T02:29:53.880Z,3.60
2023-03-19T02:30:04.640Z,3.70
2023-03-19T02:30:17.374Z,3.70
2023-03-19T02:30:28.169Z,4.10
2023-03-19T02:30:38.991Z,4.00
2023-03-19T02:30:50.729Z,4.10
2023-03-19T02:31:01.612Z,4.00
2023-03-19T02:31:12.468Z,4.40
2023-03-19T02:31:23.423Z,4.40
2023-03-19T02:31:34.304Z,4.20
2023-03-19T02:31:45.101Z,4.30
2023-03-19T02:31:55.985Z,4.40
2023-03-19T02:32:06.924Z,4.40
2023-03-19T02:32:17.691Z,4.50
2023-03-19T02:32:28.477Z,4.40
2023-03-19T02:32:40.529Z,4.30
2023-03-19T02:32:53.095Z,4.20
2023-03-19T02:33:04.921Z,4.10
2023-03-19T02:33:15.762Z,4.50
2023-03-19T02:33:26.540Z,4.40
2023-03-19T02:33:37.311Z,4.30
2023-03-19T02:33:49.196Z,4.40
2023-03-19T02:34:01.740Z,4.50
2023-03-19T02:34:14.513Z,4.30
2023-03-19T02:34:25.253Z,4.00
2023-03-19T02:34:37.121Z,4.00
2023-03-19T02:34:49.131Z,4.00
2023-03-19T02:35:00.880Z,4.10
2023-03-19T02:35:11.663Z,4.30
2023-03-19T02:35:23.455Z,4.50
2023-03-19T02:35:34.313Z,4.40
2023-03-19T02:35:46.074Z,4.40
2023-03-19T02:35:58.346Z,4.60
2023-03-19T02:36:09.124Z,4.60
2023-03-19T02:36:21.671Z,4.70